Time;durP1;ratioP1;P1;durP2;ratioP2;P2;SDS_P1;SDS_P2;PMS_P1;PMS_P2;Temp;Humidity;BMP_temperature;BMP_pressure;BME280_temperature;BME280_humidity;BME280_pressure;Samples;Min_cycle;Max_cycle;Signal;HPM_P1;HPM_P2
2020/12/05 00:01:37;;;;;;;4.55;2.15;;;;;;;20.29;39.70;97457.09;5025075;28;20619;-74
2020/12/05 00:04:03;;;;;;;4.38;2.05;;;;;;;20.29;39.49;97464.13;5019255;28;20029;-79
2020/12/05 00:06:28;;;;;;;3.75;2.20;;;;;;;20.29;39.61;97466.75;5020610;28;20021;-76
2020/12/05 00:08:53;;;;;;;3.38;2.38;;;;;;;20.29;39.54;97472.88;5022135;28;20118;-77
2020/12/05 00:11:28;;;;;;;3.58;2.15;;;;;;;20.28;39.58;97473.81;5021220;28;20033;-76
2020/12/05 00:13:54;;;;;;;4.22;2.15;;;;;;;20.27;39.59;97477.38;5023847;28;20076;-76
2020/12/05 00:16:19;;;;;;;3.90;2.10;;;;;;;20.28;39.75;97479.09;5020326;28;20505;-75
2020/12/05 00:18:47;;;;;;;4.53;2.20;;;;;;;20.29;39.33;97482.53;5014954;28;20064;-76
2020/12/05 00:21:15;;;;;;;4.50;2.28;;;;;;;20.27;39.74;97487.91;4997876;28;20490;-79
2020/12/05 00:23:41;;;;;;;4.28;2.35;;;;;;;20.28;39.66;97494.84;4994428;28;20038;-78
2020/12/05 00:26:06;;;;;;;4.15;2.45;;;;;;;20.27;39.41;97490.53;4994125;28;20038;-81
2020/12/05 00:28:31;;;;;;;4.20;1.83;;;;;;;20.30;39.64;97497.38;4993059;28;20036;-76
2020/12/05 00:30:57;;;;;;;3.78;1.92;;;;;;;20.29;39.61;97503.56;4994211;28;20044;-77
2020/12/05 00:33:22;;;;;;;3.53;2.25;;;;;;;20.28;39.59;97512.41;4994583;28;20030;-77
2020/12/05 00:35:47;;;;;;;3.28;2.00;;;;;;;20.28;39.63;97515.03;4993424;28;20038;-75
2020/12/05 00:38:13;;;;;;;3.60;1.95;;;;;;;20.27;39.60;97511.56;4993133;28;20034;-79
2020/12/05 00:40:38;;;;;;;3.80;2.33;;;;;;;20.27;39.43;97519.47;4993822;28;20046;-75
2020/12/05 00:43:04;;;;;;;4.05;2.33;;;;;;;20.27;39.49;97513.34;4992792;28;20047;-76
2020/12/05 00:45:29;;;;;;;3.85;2.35;;;;;;;20.27;39.69;97508.94;4993705;28;20034;-78
2020/12/05 00:47:54;;;;;;;4.38;2.35;;;;;;;20.26;39.65;97503.78;4994278;28;20034;-76
2020/12/05 00:50:20;;;;;;;3.95;1.98;;;;;;;20.28;39.52;97501.88;4994063;28;20117;-76
2020/12/05 00:52:45;;;;;;;3.55;2.10;;;;;;;20.29;39.45;97501.81;4994003;28;20041;-77
2020/12/05 00:55:18;;;;;;;4.22;1.90;;;;;;;20.27;39.62;97500.19;4992973;28;20042;-76
2020/12/05 00:57:43;;;;;;;3.85;1.90;;;;;;;20.26;39.36;97504.63;4993904;28;20230;-74
2020/12/05 01:00:09;;;;;;;4.72;2.17;;;;;;;20.26;39.44;97498.50;4992133;28;20058;-74
2020/12/05 01:02:34;;;;;;;3.50;2.20;;;;;;;20.24;39.38;97493.34;4994021;28;20031;-76
2020/12/05 01:05:00;;;;;;;3.42;2.25;;;;;;;20.24;39.46;97502.06;5010779;28;20506;-75
2020/12/05 01:07:25;;;;;;;3.97;2.00;;;;;;;20.24;39.73;97496.00;5012279;28;20038;-75
2020/12/05 01:09:52;;;;;;;4.40;2.10;;;;;;;20.24;39.44;97496.00;5013057;28;20562;-74
2020/12/05 01:12:18;;;;;;;3.35;1.85;;;;;;;20.24;39.60;97496.81;5013331;28;20125;-74
2020/12/05 01:14:43;;;;;;;2.65;1.83;;;;;;;20.26;39.43;97494.09;5011631;28;20113;-74
2020/12/05 01:17:08;;;;;;;3.25;1.88;;;;;;;20.27;39.46;97487.06;5006620;28;20042;-78
2020/12/05 01:19:34;;;;;;;2.63;1.67;;;;;;;20.26;39.68;97494.09;5012982;28;20038;-74
2020/12/05 01:21:59;;;;;;;3.08;2.03;;;;;;;20.25;39.57;97505.56;5013314;28;20034;-73
2020/12/05 01:24:24;;;;;;;3.15;1.85;;;;;;;20.24;39.44;97503.88;5028433;28;20036;-76
2020/12/05 01:26:50;;;;;;;3.78;2.10;;;;;;;20.24;39.55;97509.13;4995943;28;20100;-75
2020/12/05 01:29:15;;;;;;;2.45;1.50;;;;;;;20.26;39.47;97512.53;5007938;28;20041;-79
2020/12/05 01:31:41;;;;;;;3.33;1.98;;;;;;;20.25;39.68;97505.56;4993163;28;20120;-75
2020/12/05 01:34:06;;;;;;;3.00;2.03;;;;;;;20.24;39.48;97509.97;5000049;28;20045;-76
2020/12/05 01:36:32;;;;;;;3.60;2.10;;;;;;;20.26;39.63;97516.91;5011940;28;20038;-76
2020/12/05 01:38:57;;;;;;;3.78;2.05;;;;;;;20.26;39.65;97517.78;5012775;28;20042;-75
2020/12/05 01:41:22;;;;;;;3.00;1.92;;;;;;;20.26;39.68;97524.81;5012346;28;20479;-75
2020/12/05 01:43:48;;;;;;;2.70;2.08;;;;;;;20.27;39.66;97523.88;5011188;28;20042;-75
2020/12/05 01:46:37;;;;;;;3.35;1.83;;;;;;;20.24;39.53;97528.38;5012536;28;20057;-76
2020/12/05 01:49:03;;;;;;;3.13;1.77;;;;;;;20.25;39.56;97521.34;5012603;28;20034;-77
2020/12/05 01:51:30;;;;;;;3.50;2.03;;;;;;;20.26;39.61;97528.28;5011398;28;20022;-75
2020/12/05 01:53:56;;;;;;;2.90;1.88;;;;;;;20.25;39.46;97531.88;5012797;28;20030;-76
2020/12/05 01:56:24;;;;;;;3.28;1.67;;;;;;;20.27;39.48;97537.88;5012639;28;20033;-75
2020/12/05 01:58:49;;;;;;;2.67;1.73;;;;;;;20.27;39.47;97545.75;5011308;28;20064;-75
2020/12/05 02:01:19;;;;;;;2.92;1.70;;;;;;;20.26;39.73;97551.97;5012122;28;20088;-76
2020/12/05 02:03:45;;;;;;;2.42;1.70;;;;;;;20.25;39.60;97552.91;5012400;28;20505;-74
2020/12/05 02:06:23;;;;;;;2.47;1.50;;;;;;;20.24;39.63;97565.19;5012141;28;20041;-77
2020/12/05 02:09:14;;;;;;;3.53;1.50;;;;;;;20.24;39.63;97578.34;5012369;28;20469;-77
2020/12/05 02:11:46;;;;;;;2.38;1.80;;;;;;;20.26;39.36;97577.41;5027038;28;20449;-76
2020/12/05 02:14:15;;;;;;;3.28;2.15;;;;;;;20.26;39.44;97587.91;5012407;28;20044;-78
2020/12/05 02:16:41;;;;;;;2.53;1.55;;;;;;;20.26;39.42;97585.28;5010869;28;20034;-75
2020/12/05 02:19:16;;;;;;;2.42;1.48;;;;;;;20.26;39.47;97590.53;5009939;28;20038;-79
2020/12/05 02:21:43;;;;;;;2.40;1.55;;;;;;;20.29;39.43;97593.00;4992917;28;20042;-81
2020/12/05 02:24:10;;;;;;;3.20;1.92;;;;;;;20.27;39.39;97590.47;4995427;28;20033;-78
2020/12/05 02:26:36;;;;;;;2.47;1.55;;;;;;;20.26;39.49;97593.19;4998702;28;20022;-76
2020/12/05 02:29:01;;;;;;;2.88;1.75;;;;;;;20.26;39.57;97590.53;4991492;28;20049;-75
2020/12/05 02:31:28;;;;;;;2.50;1.67;;;;;;;20.26;39.23;97594.03;4992175;28;20030;-79
2020/12/05 02:33:53;;;;;;;3.00;1.58;;;;;;;20.28;39.40;97599.19;4992146;28;20038;-76
2020/12/05 02:36:19;;;;;;;1.88;1.50;;;;;;;20.27;39.43;97603.63;4991198;28;20452;-76
2020/12/05 02:38:57;;;;;;;2.05;1.48;;;;;;;20.25;39.30;97600.22;4992360;28;20030;-74
2020/12/05 02:41:23;;;;;;;3.13;1.80;;;;;;;20.26;39.34;97601.06;4992263;28;20522;-75
2020/12/05 02:43:49;;;;;;;4.45;1.70;;;;;;;20.25;39.31;97602.88;4990884;28;20042;-74
2020/12/05 02:46:16;;;;;;;2.15;1.58;;;;;;;20.24;39.48;97602.00;5006902;28;20495;-77
2020/12/05 02:48:41;;;;;;;2.78;1.77;;;;;;;20.26;39.55;97601.06;5014088;28;20172;-80
2020/12/05 02:51:06;;;;;;;2.67;1.60;;;;;;;20.26;39.36;97604.56;5016109;28;20519;-75
2020/12/05 02:53:32;;;;;;;2.53;1.38;;;;;;;20.24;39.36;97604.63;5015844;28;20038;-76
2020/12/05 02:55:57;;;;;;;3.03;1.75;;;;;;;20.27;39.41;97608.00;5002403;28;20045;-77
2020/12/05 02:58:23;;;;;;;2.15;1.75;;;;;;;20.27;39.48;97600.13;4994911;28;20038;-76
2020/12/05 03:00:48;;;;;;;2.35;1.40;;;;;;;20.26;39.24;97604.56;4995922;28;20451;-76
2020/12/05 03:03:16;;;;;;;3.03;1.50;;;;;;;20.27;39.42;97606.25;4995953;28;20034;-80
2020/12/05 03:05:41;;;;;;;2.28;1.40;;;;;;;20.27;39.30;97592.25;4995987;28;20038;-79
2020/12/05 03:08:06;;;;;;;2.40;1.50;;;;;;;20.27;39.23;97600.13;4996162;28;20039;-78
2020/12/05 03:10:32;;;;;;;3.53;1.20;;;;;;;20.27;39.49;97595.72;4995458;28;20113;-76
2020/12/05 03:12:57;;;;;;;2.35;1.55;;;;;;;20.27;39.50;97582.59;4994942;28;20085;-74
2020/12/05 03:15:23;;;;;;;2.38;1.25;;;;;;;20.28;39.47;97599.19;4995918;28;20049;-74
2020/12/05 03:17:48;;;;;;;2.80;1.27;;;;;;;20.24;39.47;97595.91;5014403;28;20034;-74
2020/12/05 03:20:13;;;;;;;2.30;1.63;;;;;;;20.23;39.38;97589.81;5015525;28;20029;-74
2020/12/05 03:22:39;;;;;;;2.25;1.63;;;;;;;20.25;39.49;97594.97;5015515;28;20038;-74
2020/12/05 03:25:04;;;;;;;2.65;1.38;;;;;;;20.26;39.56;97596.66;5013631;28;20033;-76
2020/12/05 03:27:30;;;;;;;2.53;1.80;;;;;;;20.26;39.41;97595.81;5012949;28;20030;-75
2020/12/05 03:29:55;;;;;;;2.40;1.42;;;;;;;20.26;39.44;97599.28;5015037;28;20509;-80
2020/12/05 03:32:28;;;;;;;2.17;1.48;;;;;;;20.26;39.42;97608.97;5015367;28;20057;-76
2020/12/05 03:34:53;;;;;;;2.20;1.38;;;;;;;20.28;39.53;97614.97;5014915;28;20049;-75
2020/12/05 03:37:19;;;;;;;1.63;1.20;;;;;;;20.26;39.48;97616.84;5013708;28;20022;-74
2020/12/05 03:39:45;;;;;;;2.22;1.48;;;;;;;20.27;39.53;97626.44;5014774;28;20034;-73
2020/12/05 03:42:11;;;;;;;2.08;1.50;;;;;;;20.26;39.25;97628.22;5009307;28;20054;-80
2020/12/05 03:44:36;;;;;;;3.08;1.40;;;;;;;20.26;39.24;97622.97;4995243;28;20034;-74
2020/12/05 03:47:02;;;;;;;2.08;1.20;;;;;;;20.27;39.56;97627.28;4995419;28;20062;-74
2020/12/05 03:49:32;;;;;;;2.75;1.33;;;;;;;20.26;39.53;97628.22;4994020;28;20046;-74
2020/12/05 03:51:58;;;;;;;1.77;1.35;;;;;;;20.26;39.47;97633.47;4995356;28;20045;-74
2020/12/05 03:54:24;;;;;;;1.92;1.25;;;;;;;20.26;39.39;97633.47;4995081;28;20031;-76
2020/12/05 03:56:49;;;;;;;2.83;1.58;;;;;;;20.26;39.44;97633.47;4995161;28;20583;-75
2020/12/05 03:59:15;;;;;;;3.33;1.42;;;;;;;20.26;39.33;97632.63;4993922;28;20475;-75
2020/12/05 04:01:40;;;;;;;2.60;1.33;;;;;;;20.27;39.54;97632.53;4994887;28;20077;-74
2020/12/05 04:04:08;;;;;;;1.95;1.23;;;;;;;20.27;39.27;97634.31;4994932;28;20034;-79
2020/12/05 04:06:34;;;;;;;2.78;1.42;;;;;;;20.28;39.33;97628.13;4994822;28;20407;-77
2020/12/05 04:08:59;;;;;;;2.42;1.40;;;;;;;20.27;39.30;97632.53;5002830;28;20045;-80
2020/12/05 04:11:25;;;;;;;3.03;1.33;;;;;;;20.29;39.25;97638.56;5014569;28;20112;-76
2020/12/05 04:13:50;;;;;;;2.22;1.10;;;;;;;20.27;39.54;97639.56;5012789;28;20479;-75
2020/12/05 04:16:15;;;;;;;1.50;1.15;;;;;;;20.27;39.42;97643.06;5005855;28;20033;-76
2020/12/05 04:18:41;;;;;;;3.03;1.40;;;;;;;20.28;39.32;97651.78;4999438;28;20073;-74
2020/12/05 04:21:06;;;;;;;1.65;1.50;;;;;;;20.28;39.48;97651.78;4997461;28;20046;-77
2020/12/05 04:23:32;;;;;;;1.80;1.30;;;;;;;20.29;39.34;97653.47;4999513;28;20035;-77
2020/12/05 04:25:58;;;;;;;1.92;1.50;;;;;;;20.28;39.17;97654.41;4998027;28;20071;-76
2020/12/05 04:28:24;;;;;;;2.58;1.67;;;;;;;20.27;39.37;97658.84;5018132;28;20040;-75
2020/12/05 04:30:49;;;;;;;1.65;1.20;;;;;;;20.28;39.32;97652.66;5013917;28;20034;-76
2020/12/05 04:33:14;;;;;;;2.30;1.52;;;;;;;20.27;39.45;97645.69;5013290;28;20034;-74
2020/12/05 04:35:41;;;;;;;2.00;1.20;;;;;;;20.27;39.47;97656.22;4993180;28;20133;-74
2020/12/05 04:38:07;;;;;;;2.35;1.60;;;;;;;20.26;39.37;97659.78;4994175;28;20041;-79
2020/12/05 04:40:33;;;;;;;2.58;1.60;;;;;;;20.28;39.14;97667.56;4993904;28;20042;-75
2020/12/05 04:43:00;;;;;;;1.40;1.20;;;;;;;20.27;39.33;97665.88;4993103;28;20053;-74
2020/12/05 04:45:26;;;;;;;2.83;1.90;;;;;;;20.27;39.28;97666.72;5002926;28;20038;-79
2020/12/05 04:47:54;;;;;;;1.65;1.10;;;;;;;20.27;39.52;97666.72;5014126;28;20045;-75
2020/12/05 04:50:22;;;;;;;1.38;1.13;;;;;;;20.29;39.22;97678.00;5013902;28;20493;-80
2020/12/05 04:52:49;;;;;;;2.17;1.38;;;;;;;20.27;39.40;97671.13;5012987;28;20568;-74
2020/12/05 04:55:15;;;;;;;2.15;1.40;;;;;;;20.27;39.29;97679.03;5013323;28;20422;-77
2020/12/05 04:57:56;;;;;;;2.50;1.40;;;;;;;20.27;39.11;97679.88;5012301;28;20510;-75
2020/12/05 05:00:21;;;;;;;1.50;1.00;;;;;;;20.27;39.27;97682.50;5013019;28;20050;-74
2020/12/05 05:02:47;;;;;;;1.95;1.30;;;;;;;20.29;39.38;97675.38;4999910;28;20448;-79
2020/12/05 05:05:14;;;;;;;2.60;1.40;;;;;;;20.31;39.45;97667.38;4993425;28;20045;-80
2020/12/05 05:07:47;;;;;;;1.63;1.20;;;;;;;20.28;39.26;97670.19;4993713;28;20046;-76
2020/12/05 05:10:17;;;;;;;2.15;1.52;;;;;;;20.24;39.39;97685.31;4992255;28;20041;-79
2020/12/05 05:12:43;;;;;;;1.67;1.10;;;;;;;20.22;39.58;97687.19;4993770;28;20418;-74
2020/12/05 05:15:30;;;;;;;3.25;1.70;;;;;;;20.22;39.37;97689.81;4993443;28;20045;-76
2020/12/05 05:18:02;;;;;;;2.50;1.40;;;;;;;20.26;39.37;97695.72;4993553;28;20054;-76
2020/12/05 05:20:35;;;;;;;1.50;1.20;;;;;;;20.28;39.46;97699.13;4992099;28;20586;-74
2020/12/05 05:23:28;;;;;;;2.40;1.30;;;;;;;20.24;39.35;97701.09;4992428;28;20077;-76
2020/12/05 05:25:59;;;;;;;1.40;1.10;;;;;;;20.27;39.39;97708.81;4990120;28;20419;-75
2020/12/05 05:28:31;;;;;;;2.20;1.40;;;;;;;20.28;39.53;97717.53;4993186;28;20372;-74
2020/12/05 05:33:43;;;;;;;2.45;1.52;;;;;;;20.25;39.49;97726.47;4993291;28;20034;-75
2020/12/05 05:36:18;;;;;;;1.77;1.10;;;;;;;20.26;39.23;97732.56;4993198;28;20046;-75
2020/12/05 05:38:55;;;;;;;2.30;1.25;;;;;;;20.26;39.36;97728.16;4975733;28;20451;-74
2020/12/05 05:41:21;;;;;;;2.13;1.20;;;;;;;20.27;39.48;97732.47;4992764;28;20042;-74
2020/12/05 05:43:53;;;;;;;1.63;1.20;;;;;;;20.26;39.25;97732.56;4993118;28;20045;-74
2020/12/05 05:46:27;;;;;;;2.30;1.20;;;;;;;20.27;39.52;97739.50;4993235;28;20037;-77
2020/12/05 05:48:53;;;;;;;1.73;0.90;;;;;;;20.28;39.21;97733.31;4992904;28;20034;-74
2020/12/05 05:51:45;;;;;;;2.88;1.30;;;;;;;20.27;39.34;97737.75;4992867;28;20101;-74
2020/12/05 05:54:28;;;;;;;1.67;1.23;;;;;;;20.26;39.40;97749.19;4991867;28;20038;-74
2020/12/05 05:56:58;;;;;;;1.55;1.20;;;;;;;20.27;39.33;97752.66;4992524;28;20030;-75
2020/12/05 05:59:29;;;;;;;1.10;0.98;;;;;;;20.27;39.57;97768.44;4974907;28;20073;-74
2020/12/05 06:01:55;;;;;;;1.70;1.20;;;;;;;20.28;39.39;97763.09;4992896;28;20077;-75
2020/12/05 06:04:26;;;;;;;1.92;1.15;;;;;;;20.27;39.43;97768.44;4992907;28;20029;-75
2020/12/05 06:06:53;;;;;;;1.92;1.20;;;;;;;20.27;39.43;97766.66;4991428;28;20554;-74
2020/12/05 06:09:43;;;;;;;1.95;1.10;;;;;;;20.29;39.45;97779.72;4992846;28;20046;-74
2020/12/05 06:12:18;;;;;;;1.05;0.88;;;;;;;20.29;39.47;97785.84;4992706;28;20467;-77
2020/12/05 06:14:44;;;;;;;1.65;1.20;;;;;;;20.29;39.36;97796.34;4991289;28;20042;-75
2020/12/05 06:17:10;;;;;;;1.73;1.10;;;;;;;20.28;39.28;97799.91;4992467;28;20403;-77
2020/12/05 06:19:41;;;;;;;1.80;1.17;;;;;;;20.29;39.35;97812.13;4992286;28;20347;-76
2020/12/05 06:22:27;;;;;;;2.13;1.40;;;;;;;20.26;39.29;97808.81;4992255;28;20022;-76
2020/12/05 06:25:04;;;;;;;1.20;1.02;;;;;;;20.30;39.44;97818.22;4990427;28;20407;-78
2020/12/05 06:27:31;;;;;;;1.65;1.00;;;;;;;20.29;39.41;97822.66;4992664;28;20076;-76
2020/12/05 06:29:57;;;;;;;2.75;1.17;;;;;;;20.27;39.50;97819.25;4992291;28;20038;-77
2020/12/05 06:32:43;;;;;;;1.15;0.90;;;;;;;20.23;39.23;97823.88;5007497;28;20415;-76
2020/12/05 06:35:21;;;;;;;1.25;0.90;;;;;;;20.24;39.50;97830.78;4992140;28;20030;-76
2020/12/05 06:37:52;;;;;;;1.42;0.93;;;;;;;20.24;39.47;97833.41;5007654;28;20523;-76
2020/12/05 06:40:18;;;;;;;2.25;1.10;;;;;;;20.23;39.76;97847.53;5007074;28;20064;-76
2020/12/05 06:42:46;;;;;;;0.98;0.88;;;;;;;20.26;39.18;97845.63;4992509;28;20495;-76
2020/12/05 06:45:26;;;;;;;1.85;1.02;;;;;;;20.23;39.39;97846.66;4991301;28;20023;-79
2020/12/05 06:48:17;;;;;;;1.45;1.10;;;;;;;20.26;39.29;97850.91;5010194;28;20041;-78
2020/12/05 06:50:46;;;;;;;1.20;0.80;;;;;;;20.28;39.53;97864.81;4994292;28;20041;-74
2020/12/05 06:53:20;;;;;;;1.17;0.88;;;;;;;20.25;39.37;97865.84;5011783;28;20037;-76
2020/12/05 06:55:47;;;;;;;1.33;0.80;;;;;;;20.27;39.53;97871.00;5010735;28;20398;-73
2020/12/05 06:58:13;;;;;;;1.55;1.10;;;;;;;20.27;39.35;97871.00;5009505;28;20034;-76
2020/12/05 07:00:40;;;;;;;3.63;1.08;;;;;;;20.27;39.60;97871.88;4987476;28;20390;-74
2020/12/05 07:03:08;;;;;;;3.10;1.13;;;;;;;20.29;39.40;97874.38;4990781;28;20026;-75
2020/12/05 07:05:38;;;;;;;2.10;1.17;;;;;;;20.28;39.69;97893.72;5004208;28;20053;-77
2020/12/05 07:08:27;;;;;;;4.43;0.90;;;;;;;20.26;39.73;97892.97;4975113;28;20057;-75
2020/12/05 07:10:59;;;;;;;5.07;1.38;;;;;;;20.31;39.82;97904.06;4995186;28;20069;-75
2020/12/05 07:13:38;;;;;;;5.05;1.27;;;;;;;20.32;39.66;97905.78;4991982;28;20591;-75
2020/12/05 07:16:16;;;;;;;1.73;1.10;;;;;;;20.33;39.78;97903.03;5004490;28;20038;-75
2020/12/05 07:18:48;;;;;;;4.60;1.00;;;;;;;20.32;39.84;97911.03;4988377;28;20064;-74
2020/12/05 07:21:14;;;;;;;5.20;1.10;;;;;;;20.32;39.72;97918.94;5008555;28;20095;-78
2020/12/05 07:23:39;;;;;;;5.60;1.33;;;;;;;20.31;39.67;97925.97;5024546;28;20036;-77
2020/12/05 07:26:06;;;;;;;2.50;1.00;;;;;;;20.30;39.84;97920.78;5008091;28;20034;-78
2020/12/05 07:28:32;;;;;;;5.47;1.10;;;;;;;20.34;39.43;97930.22;5010119;28;20517;-80
2020/12/05 07:30:57;;;;;;;7.68;1.58;;;;;;;20.35;39.65;97931.91;5010193;28;20048;-79
2020/12/05 07:33:23;;;;;;;7.10;1.25;;;;;;;20.36;39.62;97934.44;5000469;28;20022;-81
2020/12/05 07:36:16;;;;;;;3.92;1.60;;;;;;;20.33;39.63;97937.22;5011751;28;20048;-79
2020/12/05 07:38:43;;;;;;;8.63;1.45;;;;;;;20.33;39.65;97947.75;5010656;28;20099;-78
2020/12/05 07:41:20;;;;;;;5.80;1.42;;;;;;;20.31;39.60;97948.78;5014878;28;20050;-76
2020/12/05 07:43:47;;;;;;;3.22;1.30;;;;;;;20.32;39.66;97953.13;5014884;28;20033;-80
2020/12/05 07:46:14;;;;;;;4.75;1.20;;;;;;;20.33;39.71;97957.44;5014494;28;20038;-78
2020/12/05 07:48:40;;;;;;;3.00;1.15;;;;;;;20.34;39.51;97959.13;5014895;28;20513;-80
2020/12/05 07:51:16;;;;;;;3.47;1.20;;;;;;;20.33;39.60;97962.72;5014977;28;20105;-77
2020/12/05 07:53:43;;;;;;;4.70;0.80;;;;;;;20.36;39.32;97963.38;5013263;28;20524;-77
2020/12/05 07:56:13;;;;;;;3.83;1.00;;;;;;;20.42;39.58;97958.69;5015040;28;20029;-78
2020/12/05 07:58:51;;;;;;;5.47;1.33;;;;;;;20.46;39.18;97957.59;5013203;28;20446;-80
2020/12/05 08:01:25;;;;;;;2.22;0.90;;;;;;;20.57;39.34;97957.81;5012964;28;20052;-78
2020/12/05 08:04:11;;;;;;;2.55;1.10;;;;;;;21.26;38.44;97962.56;5013626;28;20034;-79
2020/12/05 08:06:53;;;;;;;3.22;1.50;;;;;;;21.68;37.86;97968.75;5009926;28;20525;-79
2020/12/05 08:09:25;;;;;;;7.05;1.30;;;;;;;21.51;37.84;97979.47;4993421;28;20105;-79
2020/12/05 08:11:53;;;;;;;2.05;1.10;;;;;;;21.33;38.21;97978.84;5007872;28;20112;-75
2020/12/05 08:14:19;;;;;;;4.93;1.23;;;;;;;21.56;37.58;97978.28;4993414;28;20046;-74
2020/12/05 08:16:44;;;;;;;8.88;1.20;;;;;;;21.79;37.48;97983.09;4995134;28;20568;-78
2020/12/05 08:19:10;;;;;;;2.65;1.20;;;;;;;21.87;37.56;97992.19;5009997;28;20042;-78
2020/12/05 08:21:36;;;;;;;4.40;1.35;;;;;;;22.16;37.58;97997.41;4995284;28;20029;-76
2020/12/05 08:24:09;;;;;;;3.28;0.90;;;;;;;22.77;36.91;98002.28;4991842;28;20046;-75
2020/12/05 08:26:36;;;;;;;4.45;1.23;;;;;;;22.81;36.77;97998.44;4992999;28;20077;-76
2020/12/05 08:29:02;;;;;;;3.42;1.08;;;;;;;22.50;37.09;98007.56;4994579;28;20113;-78
2020/12/05 08:31:28;;;;;;;3.95;1.50;;;;;;;23.41;35.82;98009.44;4992828;28;20177;-77
2020/12/05 08:33:53;;;;;;;9.48;1.48;;;;;;;24.09;34.76;98008.28;5003665;28;20605;-76
2020/12/05 08:36:32;;;;;;;6.35;1.42;;;;;;;24.46;35.12;98001.13;4994890;28;20534;-77
2020/12/05 08:39:05;;;;;;;3.95;1.38;;;;;;;24.43;34.57;98003.16;4993662;28;20113;-75
2020/12/05 08:41:41;;;;;;;3.03;0.90;;;;;;;24.42;34.51;98001.47;4991743;28;20108;-75
2020/12/05 08:44:16;;;;;;;2.60;1.10;;;;;;;24.83;34.45;98010.84;4993159;28;20037;-78
2020/12/05 08:46:42;;;;;;;4.85;1.17;;;;;;;24.63;34.11;98018.44;4992565;28;20030;-79
2020/12/05 08:49:16;;;;;;;5.82;1.13;;;;;;;23.98;35.14;98020.47;5014416;28;20409;-75
2020/12/05 08:51:48;;;;;;;5.60;1.15;;;;;;;23.68;35.63;98020.81;4995843;28;20066;-73
2020/12/05 08:54:14;;;;;;;2.42;0.95;;;;;;;23.73;35.37;98018.69;4992675;28;20433;-76
2020/12/05 08:56:40;;;;;;;1.58;0.77;;;;;;;23.78;35.71;98024.50;4992569;28;20031;-75
2020/12/05 08:59:06;;;;;;;2.53;0.90;;;;;;;23.94;35.10;98020.78;5007000;28;20038;-74
2020/12/05 09:01:41;;;;;;;3.63;1.27;;;;;;;24.04;35.42;98029.78;5014634;28;20041;-80
2020/12/05 09:04:07;;;;;;;3.53;1.42;;;;;;;24.71;33.95;98031.13;5009163;28;20141;-76
2020/12/05 09:06:33;;;;;;;1.67;1.10;;;;;;;25.64;32.89;98041.81;5011912;28;20503;-78
2020/12/05 09:08:59;;;;;;;7.82;1.10;;;;;;;26.64;31.57;98048.94;4993491;28;20035;-75
2020/12/05 09:11:25;;;;;;;3.92;1.20;;;;;;;27.77;29.64;98054.63;4993445;28;20034;-75
2020/12/05 09:13:52;;;;;;;10.65;2.03;;;;;;;28.02;29.34;98058.66;4993566;28;20030;-78
2020/12/05 09:16:18;;;;;;;10.25;1.95;;;;;;;26.09;31.98;98063.03;4992283;28;20499;-76
2020/12/05 09:18:46;;;;;;;4.47;1.90;;;;;;;24.93;33.34;98063.94;5028627;28;20029;-77
2020/12/05 09:21:17;;;;;;;13.02;1.52;;;;;;;24.17;34.39;98061.50;5030964;28;20073;-78
2020/12/05 09:23:43;;;;;;;5.07;1.55;;;;;;;23.72;35.19;98065.47;5031253;28;20128;-77
2020/12/05 09:26:09;;;;;;;6.03;1.35;;;;;;;23.45;35.57;98070.84;5031274;28;20506;-79
2020/12/05 09:28:35;;;;;;;9.43;1.80;;;;;;;23.26;35.97;98066.81;5031412;28;20025;-79
2020/12/05 09:31:06;;;;;;;5.03;1.33;;;;;;;23.16;35.99;98071.00;5031275;28;20036;-78
2020/12/05 09:33:31;;;;;;;6.88;1.45;;;;;;;23.05;36.46;98065.56;5025291;28;20117;-79
2020/12/05 09:35:57;;;;;;;14.05;1.20;;;;;;;22.96;36.48;98064.44;4975901;28;20507;-77
2020/12/05 09:38:23;;;;;;;6.93;1.30;;;;;;;22.92;36.54;98068.22;4992133;28;20435;-78
2020/12/05 09:40:49;;;;;;;6.38;1.42;;;;;;;22.89;36.57;98071.06;4975180;28;20048;-77
2020/12/05 09:43:15;;;;;;;5.18;1.45;;;;;;;22.86;36.69;98084.44;4991602;28;20037;-81
2020/12/05 09:45:43;;;;;;;4.18;0.95;;;;;;;22.83;36.70;98080.22;4975567;28;20027;-78
2020/12/05 09:48:08;;;;;;;4.30;1.38;;;;;;;22.80;36.77;98089.22;4991858;28;20034;-79
2020/12/05 09:50:34;;;;;;;3.15;1.20;;;;;;;22.79;36.58;98092.78;4992021;28;20395;-77
2020/12/05 09:52:59;;;;;;;6.75;1.25;;;;;;;22.78;36.74;98093.75;4992172;28;20387;-81
2020/12/05 09:55:26;;;;;;;2.78;0.90;;;;;;;22.77;36.68;98086.75;4992726;28;20064;-79
2020/12/05 09:57:51;;;;;;;2.55;1.10;;;;;;;22.75;36.74;98079.88;5007256;28;20037;-77
2020/12/05 10:00:17;;;;;;;2.05;0.80;;;;;;;22.75;36.86;98066.66;4975289;28;20031;-79
2020/12/05 10:02:43;;;;;;;3.03;1.00;;;;;;;22.72;36.88;98075.66;5007991;28;20030;-78
2020/12/05 10:05:11;;;;;;;2.67;1.10;;;;;;;22.71;36.83;98073.94;4991430;28;20029;-78
2020/12/05 10:07:38;;;;;;;1.80;0.90;;;;;;;22.73;36.93;98060.66;4991503;28;20038;-79
2020/12/05 10:10:05;;;;;;;1.90;0.73;;;;;;;22.72;36.93;98057.16;4990847;28;20033;-79
2020/12/05 10:12:32;;;;;;;2.25;0.75;;;;;;;22.71;36.90;98071.31;4991345;28;20052;-79
2020/12/05 10:14:58;;;;;;;4.60;1.25;;;;;;;22.73;36.89;98073.88;5007952;28;20073;-80
2020/12/05 10:17:23;;;;;;;0.70;0.63;;;;;;;22.73;37.08;98084.44;4991392;28;20033;-81
2020/12/05 10:19:49;;;;;;;1.92;0.82;;;;;;;22.72;36.89;98078.28;4991236;28;20503;-80
2020/12/05 10:22:15;;;;;;;3.92;1.00;;;;;;;22.68;36.79;98075.94;4975265;28;20030;-78
2020/12/05 10:24:40;;;;;;;2.13;0.70;;;;;;;22.66;37.08;98068.97;4991010;28;20038;-76
2020/12/05 10:27:06;;;;;;;2.40;0.90;;;;;;;22.64;36.90;98076.16;4991146;28;20034;-79
2020/12/05 10:29:32;;;;;;;2.78;1.10;;;;;;;22.62;37.29;98078.03;4991114;28;20554;-79
2020/12/05 10:31:57;;;;;;;2.22;0.80;;;;;;;22.59;36.98;98080.88;4991251;28;20112;-79
2020/12/05 10:34:23;;;;;;;2.65;1.00;;;;;;;22.57;37.06;98071.38;4991263;28;20093;-79
2020/12/05 10:36:49;;;;;;;1.65;0.80;;;;;;;22.57;37.08;98074.88;4991174;28;20093;-80
2020/12/05 10:39:15;;;;;;;2.83;1.25;;;;;;;22.56;36.97;98074.94;4974654;28;20531;-77
2020/12/05 10:41:41;;;;;;;3.20;0.88;;;;;;;22.56;37.07;98074.94;4990864;28;20049;-79
2020/12/05 10:44:08;;;;;;;1.10;0.60;;;;;;;22.51;37.11;98076.09;4991446;28;20100;-81
2020/12/05 10:46:47;;;;;;;1.73;0.82;;;;;;;22.47;37.38;98074.63;4974956;28;20384;-78
2020/12/05 10:49:13;;;;;;;1.92;0.85;;;;;;;22.50;37.11;98082.31;4992343;28;20847;-80
2020/12/05 10:51:38;;;;;;;2.15;0.63;;;;;;;22.50;36.97;98086.75;4991063;28;20122;-79
2020/12/05 10:54:07;;;;;;;2.95;0.90;;;;;;;22.46;37.13;98096.66;4992086;28;20034;-79
2020/12/05 10:56:34;;;;;;;1.52;0.80;;;;;;;22.45;36.99;98094.09;4974470;28;20499;-79
2020/12/05 10:58:59;;;;;;;1.60;0.70;;;;;;;22.41;37.09;98097.88;4992493;28;20038;-76
2020/12/05 11:01:25;;;;;;;1.35;0.80;;;;;;;22.40;37.10;98110.22;4992208;28;20406;-79
2020/12/05 11:03:50;;;;;;;1.40;0.90;;;;;;;22.42;36.83;98118.91;5007159;28;20027;-80
2020/12/05 11:06:23;;;;;;;1.73;0.90;;;;;;;22.39;37.02;98113.78;4991111;28;20035;-79
2020/12/05 11:08:48;;;;;;;3.13;0.80;;;;;;;22.38;36.91;98111.25;4991415;28;20137;-78
2020/12/05 11:11:14;;;;;;;1.58;0.88;;;;;;;22.34;36.96;98110.63;4978334;28;20146;-78
2020/12/05 11:13:40;;;;;;;1.58;0.77;;;;;;;22.29;36.88;98113.53;4995878;28;20038;-77
2020/12/05 11:16:05;;;;;;;1.45;0.70;;;;;;;22.29;36.94;98110.06;4994624;28;20039;-79
2020/12/05 11:18:30;;;;;;;1.77;0.82;;;;;;;22.25;37.12;98109.41;4978581;28;20041;-80
2020/12/05 11:20:56;;;;;;;1.95;0.93;;;;;;;22.19;37.08;98113.25;4994826;28;20530;-80
2020/12/05 11:23:21;;;;;;;2.88;0.98;;;;;;;22.17;36.84;98120.44;4994396;28;20085;-77
2020/12/05 11:25:47;;;;;;;1.50;0.80;;;;;;;22.14;37.18;98127.66;4996005;28;20442;-78
2020/12/05 11:28:13;;;;;;;1.30;0.70;;;;;;;22.11;37.08;98119.97;4978107;28;20038;-81
2020/12/05 11:30:38;;;;;;;1.55;0.80;;;;;;;22.10;37.22;98131.47;4994777;28;20037;-80
2020/12/05 11:33:04;;;;;;;1.80;0.90;;;;;;;22.06;37.15;98122.88;5011017;28;20049;-79
2020/12/05 11:35:29;;;;;;;1.20;0.70;;;;;;;22.04;37.16;98125.63;4994250;28;20026;-77
2020/12/05 11:37:54;;;;;;;1.08;0.60;;;;;;;22.01;36.87;98123.16;4994049;28;20168;-79
2020/12/05 11:40:20;;;;;;;1.73;0.90;;;;;;;22.00;36.94;98131.19;4994072;28;20093;-77
2020/12/05 11:42:45;;;;;;;1.10;0.55;;;;;;;21.98;37.03;98128.63;5010671;28;20117;-80